»·PEaware :: N10MT KIFP-KTRM

N10MT :: KIFP-KTRM

FLIGHT INFORMATION

Flight Status: Arrived
Operator: Privately registered:
United States
More flights under this callsign
Pilot: Matthew T. (14159)
Aircraft: ECLIPSE 500
(EA50)
More flights by this aircraft type
Origin: KIFP Laughlin/Bullhead Intl
United States
Destination: KTRM Desert Resorts Regl
United States
More flights between these airports :: More routes between these airports
Route: GFS V514 CONES
File this flight plan on PilotEdge
Remarks:
Altitude:
(Current/Filed)
10,500ft
Speed:
(Current/Filed)
300kts
Departed: 07-Jul-18 01:45 PM
Arrived: 07-Jul-18 02:21 PM
Distance/Time
Traveled:
121nm/0:36
Distance/Time
To Go:
Arrived

Flight Plot

Page will automatically refresh every two minutes.

Flight plan parsing failed; only flown route is shown


Map Options




Map Legend


Flown Route
Filed Route
Departure Airport
Arrival Airport
Navaid (VOR, NDB)
Fix

Horizontal Profiles

Position Reports

Time Latitude Longitude Heading Altitude Ground
Speed
07-Jul-18 13:38 35.159758 -114.556367 266 678ft 0kts
07-Jul-18 13:39 35.159758 -114.556367 266 678ft 0kts
07-Jul-18 13:40 35.159758 -114.556367 266 678ft 0kts
07-Jul-18 13:41 35.159758 -114.556367 266 678ft 0kts
07-Jul-18 13:42 35.159503 -114.557841 266 665ft 13kts
07-Jul-18 13:42 35.163363 -114.558613 357 646ft 26kts
07-Jul-18 13:43 35.166201 -114.559221 277 635ft 0kts
07-Jul-18 13:44 35.166201 -114.559221 277 635ft 0kts
07-Jul-18 13:45 35.156273 -114.559498 178 695ft 114kts
07-Jul-18 13:46 35.117786 -114.571152 247 2202ft 203kts
07-Jul-18 13:47 35.117761 -114.635950 294 5315ft 204kts
07-Jul-18 13:48 35.134838 -114.702278 277 7976ft 211kts
07-Jul-18 13:49 35.107858 -114.770475 229 8534ft 249kts
07-Jul-18 13:50 35.068321 -114.833684 231 8481ft 232kts
07-Jul-18 13:51 35.031366 -114.896449 232 7472ft 226kts
07-Jul-18 13:52 34.996221 -114.959658 249 6554ft 227kts
07-Jul-18 13:53 34.978434 -115.031313 236 6540ft 231kts
07-Jul-18 13:54 34.934679 -115.089060 223 6808ft 252kts
07-Jul-18 13:55 34.892670 -115.147849 230 8148ft 227kts
07-Jul-18 13:56 34.853084 -115.211430 232 9217ft 227kts
07-Jul-18 13:57 34.814057 -115.277471 233 10523ft 251kts
07-Jul-18 13:58 34.762045 -115.335774 200 10547ft 266kts
07-Jul-18 13:59 34.692929 -115.368402 199 10556ft 267kts
07-Jul-18 14:01 34.623703 -115.399449 198 10602ft 265kts
07-Jul-18 14:02 34.554460 -115.429938 198 10663ft 264kts
07-Jul-18 14:03 34.485325 -115.460161 198 10674ft 264kts
07-Jul-18 14:04 34.416084 -115.490325 198 10674ft 265kts
07-Jul-18 14:05 34.344344 -115.521486 198 10674ft 276kts
07-Jul-18 14:06 34.283691 -115.578660 220 10674ft 279kts
07-Jul-18 14:07 34.226171 -115.642388 221 10709ft 280kts
07-Jul-18 14:08 34.172366 -115.702575 220 10709ft 280kts
07-Jul-18 14:09 34.118072 -115.763342 219 10709ft 281kts
07-Jul-18 14:10 34.054478 -115.816395 212 10386ft 274kts
07-Jul-18 14:11 33.998873 -115.861679 211 9362ft 217kts
07-Jul-18 14:12 33.948842 -115.902216 211 8527ft 214kts
07-Jul-18 14:13 33.899953 -115.941717 211 7723ft 211kts
07-Jul-18 14:14 33.851907 -115.980463 211 6930ft 208kts
07-Jul-18 14:15 33.803942 -116.019154 211 6225ft 215kts
07-Jul-18 14:16 33.754725 -116.058600 209 5510ft 207kts
07-Jul-18 14:17 33.708556 -116.097286 210 4228ft 188kts
07-Jul-18 14:18 33.664123 -116.121260 192 2728ft 172kts
07-Jul-18 14:19 33.655465 -116.162531 313 1351ft 178kts
07-Jul-18 14:20 33.662215 -116.201306 200 889ft 120kts
07-Jul-18 14:21 33.638378 -116.180821 134 131ft 94kts
07-Jul-18 14:22 33.623233 -116.162671 133 -114ft 28kts
07-Jul-18 14:23 33.623397 -116.161814 348 -114ft 0kts
07-Jul-18 14:24 33.624070 -116.162566 314 -114ft 11kts
07-Jul-18 14:25 33.627568 -116.166736 314 -111ft 22kts
07-Jul-18 14:26 33.631149 -116.170851 349 -105ft 15kts
07-Jul-18 14:27 33.634126 -116.169639 91 -104ft 14kts
07-Jul-18 14:28 33.634215 -116.165494 48 -108ft 6kts
07-Jul-18 14:29 33.634406 -116.165517 271 -108ft 0kts
07-Jul-18 14:30 33.634406 -116.165517 271 -108ft 0kts

Navigation Log

Ident Type
Flight plan parsing failed, navigation log unavailable